sensor_id;sensor_type;location;lat;lon;timestamp;P1;durP1;ratioP1;P2;durP2;ratioP2
54177;SDS011;40085;53.004;6.770;2022-12-18T00:02:03;16.10;;;8.57;;
54177;SDS011;40085;53.004;6.770;2022-12-18T00:04:29;22.40;;;11.90;;
54177;SDS011;40085;53.004;6.770;2022-12-18T00:06:55;22.05;;;10.93;;
54177;SDS011;40085;53.004;6.770;2022-12-18T00:09:20;16.20;;;8.52;;
54177;SDS011;40085;53.004;6.770;2022-12-18T00:11:46;28.52;;;11.48;;
54177;SDS011;40085;53.004;6.770;2022-12-18T00:14:12;16.27;;;8.50;;
54177;SDS011;40085;53.004;6.770;2022-12-18T00:16:38;12.18;;;7.60;;
54177;SDS011;40085;53.004;6.770;2022-12-18T00:19:05;23.80;;;11.55;;
54177;SDS011;40085;53.004;6.770;2022-12-18T00:21:32;25.65;;;10.60;;
54177;SDS011;40085;53.004;6.770;2022-12-18T00:23:59;22.10;;;8.10;;
54177;SDS011;40085;53.004;6.770;2022-12-18T00:26:26;14.48;;;10.55;;
54177;SDS011;40085;53.004;6.770;2022-12-18T00:28:54;18.08;;;8.60;;
54177;SDS011;40085;53.004;6.770;2022-12-18T00:31:23;28.58;;;12.18;;
54177;SDS011;40085;53.004;6.770;2022-12-18T00:33:49;31.90;;;13.27;;
54177;SDS011;40085;53.004;6.770;2022-12-18T00:36:19;37.97;;;13.20;;
54177;SDS011;40085;53.004;6.770;2022-12-18T00:38:46;29.27;;;13.68;;
54177;SDS011;40085;53.004;6.770;2022-12-18T00:41:13;28.38;;;12.65;;
54177;SDS011;40085;53.004;6.770;2022-12-18T00:43:59;29.23;;;13.57;;
54177;SDS011;40085;53.004;6.770;2022-12-18T00:46:24;28.80;;;12.75;;
54177;SDS011;40085;53.004;6.770;2022-12-18T00:48:50;30.35;;;14.57;;
54177;SDS011;40085;53.004;6.770;2022-12-18T00:51:15;35.97;;;15.07;;
54177;SDS011;40085;53.004;6.770;2022-12-18T00:53:41;25.88;;;11.35;;
54177;SDS011;40085;53.004;6.770;2022-12-18T00:56:06;44.13;;;16.02;;
54177;SDS011;40085;53.004;6.770;2022-12-18T00:58:35;32.05;;;14.35;;
54177;SDS011;40085;53.004;6.770;2022-12-18T01:01:00;33.45;;;14.05;;
54177;SDS011;40085;53.004;6.770;2022-12-18T01:03:26;33.30;;;14.27;;
54177;SDS011;40085;53.004;6.770;2022-12-18T01:05:51;44.95;;;14.27;;
54177;SDS011;40085;53.004;6.770;2022-12-18T01:08:17;27.70;;;14.53;;
54177;SDS011;40085;53.004;6.770;2022-12-18T01:10:42;39.70;;;13.82;;
54177;SDS011;40085;53.004;6.770;2022-12-18T01:13:08;27.35;;;12.80;;
54177;SDS011;40085;53.004;6.770;2022-12-18T01:15:34;30.27;;;13.98;;
54177;SDS011;40085;53.004;6.770;2022-12-18T01:17:59;28.38;;;11.98;;
54177;SDS011;40085;53.004;6.770;2022-12-18T01:20:25;33.22;;;14.55;;
54177;SDS011;40085;53.004;6.770;2022-12-18T01:22:50;36.72;;;13.50;;
54177;SDS011;40085;53.004;6.770;2022-12-18T01:25:16;32.60;;;14.48;;
54177;SDS011;40085;53.004;6.770;2022-12-18T01:27:41;31.42;;;13.63;;
54177;SDS011;40085;53.004;6.770;2022-12-18T01:30:07;33.75;;;14.00;;
54177;SDS011;40085;53.004;6.770;2022-12-18T01:32:33;29.77;;;13.00;;
54177;SDS011;40085;53.004;6.770;2022-12-18T01:34:59;34.08;;;15.43;;
54177;SDS011;40085;53.004;6.770;2022-12-18T01:37:24;29.27;;;14.43;;
54177;SDS011;40085;53.004;6.770;2022-12-18T01:39:50;30.58;;;12.48;;
54177;SDS011;40085;53.004;6.770;2022-12-18T01:42:19;25.73;;;12.95;;
54177;SDS011;40085;53.004;6.770;2022-12-18T01:47:39;32.28;;;15.75;;
54177;SDS011;40085;53.004;6.770;2022-12-18T01:50:18;26.92;;;13.68;;
54177;SDS011;40085;53.004;6.770;2022-12-18T01:55:43;23.50;;;11.02;;
54177;SDS011;40085;53.004;6.770;2022-12-18T01:58:22;43.08;;;17.08;;
54177;SDS011;40085;53.004;6.770;2022-12-18T02:01:00;35.15;;;12.63;;
54177;SDS011;40085;53.004;6.770;2022-12-18T02:03:26;26.67;;;13.30;;
54177;SDS011;40085;53.004;6.770;2022-12-18T02:05:55;31.73;;;14.70;;
54177;SDS011;40085;53.004;6.770;2022-12-18T02:08:51;22.02;;;15.57;;
54177;SDS011;40085;53.004;6.770;2022-12-18T02:11:44;25.05;;;14.38;;
54177;SDS011;40085;53.004;6.770;2022-12-18T02:14:17;27.63;;;13.23;;
54177;SDS011;40085;53.004;6.770;2022-12-18T02:27:40;16.27;;;12.10;;
54177;SDS011;40085;53.004;6.770;2022-12-18T02:30:09;30.10;;;15.02;;
54177;SDS011;40085;53.004;6.770;2022-12-18T02:32:37;23.13;;;9.83;;
54177;SDS011;40085;53.004;6.770;2022-12-18T02:35:11;32.13;;;16.10;;
54177;SDS011;40085;53.004;6.770;2022-12-18T02:37:40;33.72;;;14.82;;
54177;SDS011;40085;53.004;6.770;2022-12-18T02:40:08;27.07;;;14.17;;
54177;SDS011;40085;53.004;6.770;2022-12-18T02:42:36;27.43;;;14.73;;
54177;SDS011;40085;53.004;6.770;2022-12-18T02:45:02;27.47;;;13.70;;
54177;SDS011;40085;53.004;6.770;2022-12-18T02:47:28;27.53;;;13.20;;
54177;SDS011;40085;53.004;6.770;2022-12-18T02:55:28;30.05;;;15.32;;
54177;SDS011;40085;53.004;6.770;2022-12-18T02:58:13;23.73;;;14.20;;
54177;SDS011;40085;53.004;6.770;2022-12-18T03:00:43;24.60;;;14.70;;
54177;SDS011;40085;53.004;6.770;2022-12-18T03:05:56;34.33;;;14.57;;
54177;SDS011;40085;53.004;6.770;2022-12-18T03:08:31;21.07;;;12.77;;
54177;SDS011;40085;53.004;6.770;2022-12-18T03:11:04;30.57;;;13.83;;
54177;SDS011;40085;53.004;6.770;2022-12-18T03:16:05;30.63;;;14.70;;
54177;SDS011;40085;53.004;6.770;2022-12-18T03:18:35;15.73;;;9.87;;
54177;SDS011;40085;53.004;6.770;2022-12-18T03:21:08;14.90;;;10.03;;
54177;SDS011;40085;53.004;6.770;2022-12-18T03:23:39;36.50;;;15.87;;
54177;SDS011;40085;53.004;6.770;2022-12-18T03:26:10;20.83;;;10.20;;
54177;SDS011;40085;53.004;6.770;2022-12-18T03:28:43;24.97;;;11.70;;
54177;SDS011;40085;53.004;6.770;2022-12-18T03:31:13;25.37;;;13.93;;
54177;SDS011;40085;53.004;6.770;2022-12-18T03:33:47;24.70;;;13.63;;
54177;SDS011;40085;53.004;6.770;2022-12-18T03:36:20;18.87;;;11.83;;
54177;SDS011;40085;53.004;6.770;2022-12-18T03:38:47;19.47;;;11.13;;
54177;SDS011;40085;53.004;6.770;2022-12-18T03:44:11;15.67;;;10.40;;
54177;SDS011;40085;53.004;6.770;2022-12-18T03:52:36;23.60;;;12.57;;
54177;SDS011;40085;53.004;6.770;2022-12-18T03:55:07;19.30;;;9.07;;
54177;SDS011;40085;53.004;6.770;2022-12-18T03:57:35;28.60;;;12.43;;
54177;SDS011;40085;53.004;6.770;2022-12-18T04:00:11;15.20;;;7.67;;
54177;SDS011;40085;53.004;6.770;2022-12-18T04:02:41;24.50;;;10.57;;
54177;SDS011;40085;53.004;6.770;2022-12-18T04:05:10;26.27;;;14.82;;
54177;SDS011;40085;53.004;6.770;2022-12-18T04:07:38;21.57;;;10.87;;
54177;SDS011;40085;53.004;6.770;2022-12-18T04:10:05;14.70;;;9.50;;
54177;SDS011;40085;53.004;6.770;2022-12-18T04:12:32;25.63;;;10.30;;
54177;SDS011;40085;53.004;6.770;2022-12-18T04:14:58;14.90;;;10.70;;
54177;SDS011;40085;53.004;6.770;2022-12-18T04:17:23;20.23;;;11.80;;
54177;SDS011;40085;53.004;6.770;2022-12-18T04:19:49;18.37;;;9.77;;
54177;SDS011;40085;53.004;6.770;2022-12-18T04:22:15;15.67;;;5.67;;
54177;SDS011;40085;53.004;6.770;2022-12-18T04:24:41;21.67;;;7.50;;
54177;SDS011;40085;53.004;6.770;2022-12-18T04:27:07;15.87;;;8.33;;
54177;SDS011;40085;53.004;6.770;2022-12-18T04:29:32;11.17;;;7.60;;
54177;SDS011;40085;53.004;6.770;2022-12-18T04:31:58;18.53;;;9.30;;
54177;SDS011;40085;53.004;6.770;2022-12-18T04:34:24;12.37;;;7.67;;
54177;SDS011;40085;53.004;6.770;2022-12-18T04:36:49;15.17;;;9.30;;
54177;SDS011;40085;53.004;6.770;2022-12-18T04:39:19;8.93;;;7.20;;
54177;SDS011;40085;53.004;6.770;2022-12-18T04:41:44;14.60;;;7.07;;
54177;SDS011;40085;53.004;6.770;2022-12-18T04:44:10;14.97;;;7.00;;
54177;SDS011;40085;53.004;6.770;2022-12-18T04:46:35;17.53;;;8.00;;
54177;SDS011;40085;53.004;6.770;2022-12-18T04:49:01;9.83;;;8.53;;
54177;SDS011;40085;53.004;6.770;2022-12-18T04:51:26;10.67;;;9.47;;
54177;SDS011;40085;53.004;6.770;2022-12-18T04:53:52;8.60;;;6.57;;
54177;SDS011;40085;53.004;6.770;2022-12-18T04:56:18;14.23;;;8.90;;
54177;SDS011;40085;53.004;6.770;2022-12-18T04:58:44;16.10;;;6.93;;
54177;SDS011;40085;53.004;6.770;2022-12-18T05:01:10;14.23;;;8.63;;
54177;SDS011;40085;53.004;6.770;2022-12-18T05:03:37;17.20;;;8.00;;
54177;SDS011;40085;53.004;6.770;2022-12-18T05:06:04;18.20;;;10.10;;
54177;SDS011;40085;53.004;6.770;2022-12-18T05:08:30;14.77;;;7.70;;
54177;SDS011;40085;53.004;6.770;2022-12-18T05:11:02;16.73;;;8.63;;
54177;SDS011;40085;53.004;6.770;2022-12-18T05:13:29;19.07;;;10.23;;
54177;SDS011;40085;53.004;6.770;2022-12-18T05:15:54;19.60;;;11.00;;
54177;SDS011;40085;53.004;6.770;2022-12-18T05:18:21;17.63;;;8.17;;
54177;SDS011;40085;53.004;6.770;2022-12-18T05:20:47;12.57;;;8.73;;
54177;SDS011;40085;53.004;6.770;2022-12-18T05:23:14;14.67;;;8.60;;
54177;SDS011;40085;53.004;6.770;2022-12-18T05:25:40;20.37;;;9.40;;
54177;SDS011;40085;53.004;6.770;2022-12-18T05:28:05;8.37;;;7.20;;
54177;SDS011;40085;53.004;6.770;2022-12-18T05:30:31;20.40;;;9.90;;
54177;SDS011;40085;53.004;6.770;2022-12-18T05:32:56;16.77;;;8.77;;
54177;SDS011;40085;53.004;6.770;2022-12-18T05:35:22;17.33;;;7.73;;
54177;SDS011;40085;53.004;6.770;2022-12-18T05:37:48;13.77;;;7.90;;
54177;SDS011;40085;53.004;6.770;2022-12-18T05:40:13;15.87;;;6.97;;
54177;SDS011;40085;53.004;6.770;2022-12-18T05:42:39;14.27;;;9.17;;
54177;SDS011;40085;53.004;6.770;2022-12-18T05:45:05;10.60;;;6.93;;
54177;SDS011;40085;53.004;6.770;2022-12-18T05:47:31;15.93;;;7.40;;
54177;SDS011;40085;53.004;6.770;2022-12-18T05:49:56;17.67;;;8.53;;
54177;SDS011;40085;53.004;6.770;2022-12-18T05:52:22;11.77;;;7.33;;
54177;SDS011;40085;53.004;6.770;2022-12-18T05:54:48;10.90;;;6.70;;
54177;SDS011;40085;53.004;6.770;2022-12-18T05:57:13;9.63;;;6.80;;
54177;SDS011;40085;53.004;6.770;2022-12-18T05:59:39;8.67;;;7.37;;
54177;SDS011;40085;53.004;6.770;2022-12-18T06:02:04;19.27;;;7.87;;
54177;SDS011;40085;53.004;6.770;2022-12-18T06:04:30;12.33;;;7.87;;
54177;SDS011;40085;53.004;6.770;2022-12-18T06:06:56;14.13;;;8.80;;
54177;SDS011;40085;53.004;6.770;2022-12-18T06:09:22;10.27;;;7.07;;
54177;SDS011;40085;53.004;6.770;2022-12-18T06:11:48;13.70;;;8.60;;
54177;SDS011;40085;53.004;6.770;2022-12-18T06:14:16;13.20;;;8.10;;
54177;SDS011;40085;53.004;6.770;2022-12-18T06:16:42;20.10;;;8.53;;
54177;SDS011;40085;53.004;6.770;2022-12-18T06:19:07;17.50;;;8.07;;
54177;SDS011;40085;53.004;6.770;2022-12-18T06:21:38;14.20;;;8.70;;
54177;SDS011;40085;53.004;6.770;2022-12-18T06:24:04;13.10;;;8.57;;
54177;SDS011;40085;53.004;6.770;2022-12-18T06:26:29;14.50;;;6.73;;
54177;SDS011;40085;53.004;6.770;2022-12-18T06:28:55;17.73;;;8.90;;
54177;SDS011;40085;53.004;6.770;2022-12-18T06:31:21;15.77;;;7.70;;
54177;SDS011;40085;53.004;6.770;2022-12-18T06:33:46;12.33;;;8.80;;
54177;SDS011;40085;53.004;6.770;2022-12-18T06:36:12;12.17;;;7.43;;
54177;SDS011;40085;53.004;6.770;2022-12-18T06:38:40;12.13;;;7.33;;
54177;SDS011;40085;53.004;6.770;2022-12-18T06:41:10;10.60;;;6.53;;
54177;SDS011;40085;53.004;6.770;2022-12-18T06:43:38;13.83;;;6.97;;
54177;SDS011;40085;53.004;6.770;2022-12-18T06:46:04;23.13;;;10.57;;
54177;SDS011;40085;53.004;6.770;2022-12-18T06:48:29;15.93;;;8.40;;
54177;SDS011;40085;53.004;6.770;2022-12-18T06:50:56;13.00;;;7.93;;
54177;SDS011;40085;53.004;6.770;2022-12-18T06:53:21;17.00;;;8.57;;
54177;SDS011;40085;53.004;6.770;2022-12-18T06:55:47;12.40;;;8.90;;
54177;SDS011;40085;53.004;6.770;2022-12-18T06:58:13;10.17;;;6.37;;
54177;SDS011;40085;53.004;6.770;2022-12-18T07:00:38;11.20;;;6.53;;
54177;SDS011;40085;53.004;6.770;2022-12-18T07:03:04;8.43;;;5.67;;
54177;SDS011;40085;53.004;6.770;2022-12-18T07:05:30;12.07;;;8.63;;
54177;SDS011;40085;53.004;6.770;2022-12-18T07:07:55;16.60;;;7.93;;
54177;SDS011;40085;53.004;6.770;2022-12-18T07:10:21;13.30;;;8.13;;
54177;SDS011;40085;53.004;6.770;2022-12-18T07:12:47;16.53;;;9.87;;
54177;SDS011;40085;53.004;6.770;2022-12-18T07:15:12;11.97;;;7.23;;
54177;SDS011;40085;53.004;6.770;2022-12-18T07:17:38;13.03;;;7.77;;
54177;SDS011;40085;53.004;6.770;2022-12-18T07:20:03;8.43;;;5.40;;
54177;SDS011;40085;53.004;6.770;2022-12-18T07:22:29;8.57;;;5.73;;
54177;SDS011;40085;53.004;6.770;2022-12-18T07:24:55;11.33;;;6.07;;
54177;SDS011;40085;53.004;6.770;2022-12-18T07:27:21;9.10;;;6.20;;
54177;SDS011;40085;53.004;6.770;2022-12-18T07:29:47;7.73;;;5.77;;
54177;SDS011;40085;53.004;6.770;2022-12-18T07:32:13;7.97;;;6.53;;
54177;SDS011;40085;53.004;6.770;2022-12-18T07:34:38;14.13;;;6.83;;
54177;SDS011;40085;53.004;6.770;2022-12-18T07:37:04;8.23;;;4.37;;
54177;SDS011;40085;53.004;6.770;2022-12-18T07:39:30;10.07;;;6.93;;
54177;SDS011;40085;53.004;6.770;2022-12-18T07:41:55;18.20;;;8.30;;
54177;SDS011;40085;53.004;6.770;2022-12-18T07:44:39;10.20;;;7.20;;
54177;SDS011;40085;53.004;6.770;2022-12-18T07:47:05;8.27;;;5.70;;
54177;SDS011;40085;53.004;6.770;2022-12-18T07:49:31;11.17;;;6.47;;
54177;SDS011;40085;53.004;6.770;2022-12-18T07:51:56;11.17;;;7.40;;
54177;SDS011;40085;53.004;6.770;2022-12-18T07:54:23;8.33;;;5.07;;
54177;SDS011;40085;53.004;6.770;2022-12-18T07:56:49;10.93;;;5.97;;
54177;SDS011;40085;53.004;6.770;2022-12-18T07:59:16;11.77;;;7.50;;
54177;SDS011;40085;53.004;6.770;2022-12-18T08:01:41;13.30;;;7.73;;
54177;SDS011;40085;53.004;6.770;2022-12-18T08:04:07;13.30;;;6.80;;
54177;SDS011;40085;53.004;6.770;2022-12-18T08:06:32;11.80;;;7.33;;
54177;SDS011;40085;53.004;6.770;2022-12-18T08:08:58;6.77;;;5.83;;
54177;SDS011;40085;53.004;6.770;2022-12-18T08:11:24;7.53;;;5.03;;
54177;SDS011;40085;53.004;6.770;2022-12-18T08:13:51;8.80;;;6.23;;
54177;SDS011;40085;53.004;6.770;2022-12-18T08:16:17;10.83;;;5.70;;
54177;SDS011;40085;53.004;6.770;2022-12-18T08:18:43;9.70;;;5.63;;
54177;SDS011;40085;53.004;6.770;2022-12-18T08:21:13;12.07;;;7.23;;
54177;SDS011;40085;53.004;6.770;2022-12-18T08:23:45;8.70;;;6.17;;
54177;SDS011;40085;53.004;6.770;2022-12-18T08:26:12;13.00;;;7.20;;
54177;SDS011;40085;53.004;6.770;2022-12-18T08:28:38;15.03;;;8.30;;
54177;SDS011;40085;53.004;6.770;2022-12-18T08:31:04;8.47;;;5.43;;
54177;SDS011;40085;53.004;6.770;2022-12-18T08:33:30;12.67;;;7.43;;
54177;SDS011;40085;53.004;6.770;2022-12-18T08:35:55;12.90;;;7.70;;
54177;SDS011;40085;53.004;6.770;2022-12-18T08:38:22;13.63;;;6.93;;
54177;SDS011;40085;53.004;6.770;2022-12-18T08:40:48;11.50;;;6.73;;
54177;SDS011;40085;53.004;6.770;2022-12-18T08:43:13;14.20;;;7.20;;
54177;SDS011;40085;53.004;6.770;2022-12-18T08:45:57;8.67;;;5.40;;
54177;SDS011;40085;53.004;6.770;2022-12-18T08:48:23;14.47;;;6.93;;
54177;SDS011;40085;53.004;6.770;2022-12-18T08:50:58;9.70;;;6.77;;
54177;SDS011;40085;53.004;6.770;2022-12-18T08:53:24;13.93;;;7.00;;
54177;SDS011;40085;53.004;6.770;2022-12-18T08:55:51;8.83;;;5.93;;
54177;SDS011;40085;53.004;6.770;2022-12-18T08:58:16;13.50;;;6.50;;
54177;SDS011;40085;53.004;6.770;2022-12-18T09:00:42;8.73;;;5.20;;
54177;SDS011;40085;53.004;6.770;2022-12-18T09:03:15;10.73;;;6.57;;
54177;SDS011;40085;53.004;6.770;2022-12-18T09:05:42;10.88;;;5.50;;
54177;SDS011;40085;53.004;6.770;2022-12-18T09:08:08;12.37;;;5.87;;
54177;SDS011;40085;53.004;6.770;2022-12-18T09:10:34;9.77;;;5.57;;
54177;SDS011;40085;53.004;6.770;2022-12-18T09:13:05;13.73;;;6.63;;
54177;SDS011;40085;53.004;6.770;2022-12-18T09:15:31;8.30;;;5.47;;
54177;SDS011;40085;53.004;6.770;2022-12-18T09:17:57;23.83;;;7.47;;
54177;SDS011;40085;53.004;6.770;2022-12-18T09:20:22;5.83;;;5.03;;
54177;SDS011;40085;53.004;6.770;2022-12-18T09:22:48;10.68;;;5.57;;
54177;SDS011;40085;53.004;6.770;2022-12-18T09:25:13;7.93;;;5.73;;
54177;SDS011;40085;53.004;6.770;2022-12-18T09:27:39;9.33;;;5.07;;
54177;SDS011;40085;53.004;6.770;2022-12-18T09:30:05;10.57;;;5.93;;
54177;SDS011;40085;53.004;6.770;2022-12-18T09:32:31;11.93;;;5.50;;
54177;SDS011;40085;53.004;6.770;2022-12-18T09:34:56;8.18;;;4.55;;
54177;SDS011;40085;53.004;6.770;2022-12-18T09:37:22;4.90;;;4.30;;
54177;SDS011;40085;53.004;6.770;2022-12-18T09:39:47;7.70;;;5.20;;
54177;SDS011;40085;53.004;6.770;2022-12-18T09:42:20;10.52;;;4.97;;
54177;SDS011;40085;53.004;6.770;2022-12-18T09:44:50;4.07;;;3.03;;
54177;SDS011;40085;53.004;6.770;2022-12-18T09:47:25;8.93;;;4.87;;
54177;SDS011;40085;53.004;6.770;2022-12-18T09:49:59;12.88;;;5.28;;
54177;SDS011;40085;53.004;6.770;2022-12-18T09:52:39;5.82;;;3.95;;
54177;SDS011;40085;53.004;6.770;2022-12-18T09:57:57;15.13;;;5.10;;
54177;SDS011;40085;53.004;6.770;2022-12-18T10:00:27;6.07;;;3.95;;
54177;SDS011;40085;53.004;6.770;2022-12-18T10:02:53;7.00;;;3.83;;
54177;SDS011;40085;53.004;6.770;2022-12-18T10:13:43;8.65;;;4.20;;
54177;SDS011;40085;53.004;6.770;2022-12-18T10:16:25;9.93;;;4.10;;
54177;SDS011;40085;53.004;6.770;2022-12-18T10:21:45;6.80;;;3.92;;
54177;SDS011;40085;53.004;6.770;2022-12-18T10:27:17;8.18;;;3.55;;
54177;SDS011;40085;53.004;6.770;2022-12-18T10:29:49;8.15;;;4.35;;
54177;SDS011;40085;53.004;6.770;2022-12-18T10:32:19;5.63;;;4.05;;
54177;SDS011;40085;53.004;6.770;2022-12-18T10:34:47;7.40;;;4.28;;
54177;SDS011;40085;53.004;6.770;2022-12-18T10:37:19;10.25;;;4.15;;
54177;SDS011;40085;53.004;6.770;2022-12-18T10:39:47;9.85;;;3.80;;
54177;SDS011;40085;53.004;6.770;2022-12-18T10:43:02;4.07;;;3.38;;
54177;SDS011;40085;53.004;6.770;2022-12-18T10:45:36;6.25;;;3.80;;
54177;SDS011;40085;53.004;6.770;2022-12-18T10:48:02;4.80;;;3.65;;
54177;SDS011;40085;53.004;6.770;2022-12-18T10:50:33;5.47;;;3.92;;
54177;SDS011;40085;53.004;6.770;2022-12-18T10:53:01;5.88;;;3.08;;
54177;SDS011;40085;53.004;6.770;2022-12-18T10:55:33;5.55;;;3.88;;
54177;SDS011;40085;53.004;6.770;2022-12-18T10:58:13;4.65;;;3.40;;
54177;SDS011;40085;53.004;6.770;2022-12-18T11:01:06;4.78;;;3.42;;
54177;SDS011;40085;53.004;6.770;2022-12-18T11:06:21;2.90;;;2.13;;
54177;SDS011;40085;53.004;6.770;2022-12-18T11:09:02;6.10;;;4.10;;
54177;SDS011;40085;53.004;6.770;2022-12-18T11:14:04;4.30;;;2.53;;
54177;SDS011;40085;53.004;6.770;2022-12-18T11:16:42;6.75;;;3.03;;
54177;SDS011;40085;53.004;6.770;2022-12-18T11:19:32;5.20;;;3.92;;
54177;SDS011;40085;53.004;6.770;2022-12-18T11:22:19;3.53;;;2.30;;
54177;SDS011;40085;53.004;6.770;2022-12-18T11:27:53;6.05;;;2.42;;
54177;SDS011;40085;53.004;6.770;2022-12-18T11:33:08;6.50;;;2.75;;
54177;SDS011;40085;53.004;6.770;2022-12-18T11:35:47;5.40;;;2.88;;
54177;SDS011;40085;53.004;6.770;2022-12-18T11:38:30;4.75;;;3.13;;
54177;SDS011;40085;53.004;6.770;2022-12-18T11:44:16;6.72;;;2.58;;
54177;SDS011;40085;53.004;6.770;2022-12-18T11:46:51;4.18;;;2.55;;
54177;SDS011;40085;53.004;6.770;2022-12-18T11:49:32;2.83;;;2.28;;
54177;SDS011;40085;53.004;6.770;2022-12-18T11:52:16;6.25;;;3.00;;
54177;SDS011;40085;53.004;6.770;2022-12-18T11:54:55;10.57;;;3.60;;
54177;SDS011;40085;53.004;6.770;2022-12-18T12:00:28;7.00;;;2.80;;
54177;SDS011;40085;53.004;6.770;2022-12-18T12:03:05;4.55;;;2.90;;
54177;SDS011;40085;53.004;6.770;2022-12-18T12:05:54;5.28;;;3.08;;
54177;SDS011;40085;53.004;6.770;2022-12-18T12:11:35;4.25;;;2.38;;
54177;SDS011;40085;53.004;6.770;2022-12-18T12:17:03;4.40;;;2.70;;
54177;SDS011;40085;53.004;6.770;2022-12-18T12:20:02;5.32;;;2.80;;
54177;SDS011;40085;53.004;6.770;2022-12-18T12:22:50;6.63;;;2.95;;
54177;SDS011;40085;53.004;6.770;2022-12-18T12:31:12;6.38;;;3.20;;
54177;SDS011;40085;53.004;6.770;2022-12-18T12:36:52;3.40;;;1.83;;
54177;SDS011;40085;53.004;6.770;2022-12-18T12:39:42;4.38;;;2.35;;
54177;SDS011;40085;53.004;6.770;2022-12-18T12:42:13;4.10;;;2.53;;
54177;SDS011;40085;53.004;6.770;2022-12-18T12:45:05;4.80;;;2.53;;
54177;SDS011;40085;53.004;6.770;2022-12-18T12:47:40;3.08;;;1.83;;
54177;SDS011;40085;53.004;6.770;2022-12-18T12:50:14;6.68;;;2.10;;
54177;SDS011;40085;53.004;6.770;2022-12-18T12:52:47;6.47;;;2.90;;
54177;SDS011;40085;53.004;6.770;2022-12-18T12:55:20;2.97;;;2.10;;
54177;SDS011;40085;53.004;6.770;2022-12-18T12:58:00;7.47;;;3.20;;
54177;SDS011;40085;53.004;6.770;2022-12-18T13:00:50;4.55;;;3.05;;
54177;SDS011;40085;53.004;6.770;2022-12-18T13:03:27;6.32;;;2.60;;
54177;SDS011;40085;53.004;6.770;2022-12-18T13:06:07;4.50;;;2.03;;
54177;SDS011;40085;53.004;6.770;2022-12-18T13:08:53;3.30;;;2.05;;
54177;SDS011;40085;53.004;6.770;2022-12-18T13:11:41;6.30;;;3.25;;
54177;SDS011;40085;53.004;6.770;2022-12-18T13:14:37;6.70;;;3.30;;
54177;SDS011;40085;53.004;6.770;2022-12-18T13:17:14;3.85;;;2.28;;
54177;SDS011;40085;53.004;6.770;2022-12-18T13:19:39;3.55;;;2.10;;
54177;SDS011;40085;53.004;6.770;2022-12-18T13:22:12;5.18;;;2.75;;
54177;SDS011;40085;53.004;6.770;2022-12-18T13:24:50;5.55;;;3.08;;
54177;SDS011;40085;53.004;6.770;2022-12-18T13:27:45;5.82;;;2.65;;
54177;SDS011;40085;53.004;6.770;2022-12-18T13:40:59;12.77;;;2.67;;
54177;SDS011;40085;53.004;6.770;2022-12-18T13:43:39;4.53;;;2.50;;
54177;SDS011;40085;53.004;6.770;2022-12-18T13:48:48;7.15;;;2.70;;
54177;SDS011;40085;53.004;6.770;2022-12-18T13:51:26;7.97;;;2.75;;
54177;SDS011;40085;53.004;6.770;2022-12-18T13:53:54;8.02;;;3.17;;
54177;SDS011;40085;53.004;6.770;2022-12-18T13:56:43;3.50;;;2.55;;
54177;SDS011;40085;53.004;6.770;2022-12-18T13:59:14;5.88;;;2.50;;
54177;SDS011;40085;53.004;6.770;2022-12-18T14:01:55;6.88;;;2.83;;
54177;SDS011;40085;53.004;6.770;2022-12-18T14:06:54;5.78;;;3.33;;
54177;SDS011;40085;53.004;6.770;2022-12-18T14:09:26;6.32;;;2.97;;
54177;SDS011;40085;53.004;6.770;2022-12-18T14:11:54;3.05;;;2.00;;
54177;SDS011;40085;53.004;6.770;2022-12-18T14:14:41;9.23;;;3.35;;
54177;SDS011;40085;53.004;6.770;2022-12-18T14:17:12;4.80;;;3.05;;
54177;SDS011;40085;53.004;6.770;2022-12-18T14:19:43;6.55;;;2.95;;
54177;SDS011;40085;53.004;6.770;2022-12-18T14:22:15;8.35;;;3.53;;
54177;SDS011;40085;53.004;6.770;2022-12-18T14:24:43;4.25;;;3.00;;
54177;SDS011;40085;53.004;6.770;2022-12-18T14:27:19;6.43;;;3.00;;
54177;SDS011;40085;53.004;6.770;2022-12-18T14:29:50;5.18;;;2.42;;
54177;SDS011;40085;53.004;6.770;2022-12-18T14:32:17;6.28;;;3.40;;
54177;SDS011;40085;53.004;6.770;2022-12-18T14:34:48;4.07;;;2.88;;
54177;SDS011;40085;53.004;6.770;2022-12-18T14:37:25;6.68;;;3.22;;
54177;SDS011;40085;53.004;6.770;2022-12-18T14:39:53;5.18;;;3.45;;
54177;SDS011;40085;53.004;6.770;2022-12-18T14:42:19;8.48;;;3.88;;
54177;SDS011;40085;53.004;6.770;2022-12-18T14:44:44;4.07;;;2.63;;
54177;SDS011;40085;53.004;6.770;2022-12-18T14:47:13;8.63;;;4.05;;
54177;SDS011;40085;53.004;6.770;2022-12-18T14:49:40;7.03;;;3.23;;
54177;SDS011;40085;53.004;6.770;2022-12-18T14:52:25;8.00;;;3.30;;
54177;SDS011;40085;53.004;6.770;2022-12-18T14:54:54;5.53;;;3.15;;
54177;SDS011;40085;53.004;6.770;2022-12-18T15:00:06;5.30;;;3.13;;
54177;SDS011;40085;53.004;6.770;2022-12-18T15:02:39;7.25;;;3.10;;
54177;SDS011;40085;53.004;6.770;2022-12-18T15:05:27;7.05;;;3.35;;
54177;SDS011;40085;53.004;6.770;2022-12-18T15:07:53;9.90;;;3.63;;
54177;SDS011;40085;53.004;6.770;2022-12-18T15:10:22;8.30;;;3.70;;
54177;SDS011;40085;53.004;6.770;2022-12-18T15:12:49;6.88;;;4.07;;
54177;SDS011;40085;53.004;6.770;2022-12-18T15:20:40;6.05;;;3.97;;
54177;SDS011;40085;53.004;6.770;2022-12-18T15:23:23;5.00;;;3.15;;
54177;SDS011;40085;53.004;6.770;2022-12-18T15:28:36;8.30;;;3.60;;
54177;SDS011;40085;53.004;6.770;2022-12-18T15:36:21;8.57;;;4.55;;
54177;SDS011;40085;53.004;6.770;2022-12-18T15:38:48;5.22;;;3.30;;
54177;SDS011;40085;53.004;6.770;2022-12-18T15:41:15;4.82;;;3.50;;
54177;SDS011;40085;53.004;6.770;2022-12-18T15:43:43;4.88;;;3.58;;
54177;SDS011;40085;53.004;6.770;2022-12-18T15:46:13;6.43;;;4.15;;
54177;SDS011;40085;53.004;6.770;2022-12-18T15:48:45;7.63;;;3.92;;
54177;SDS011;40085;53.004;6.770;2022-12-18T15:53:58;5.07;;;3.33;;
54177;SDS011;40085;53.004;6.770;2022-12-18T15:56:26;6.82;;;3.42;;
54177;SDS011;40085;53.004;6.770;2022-12-18T15:59:11;5.22;;;3.10;;
54177;SDS011;40085;53.004;6.770;2022-12-18T16:01:41;9.70;;;4.03;;
54177;SDS011;40085;53.004;6.770;2022-12-18T16:04:13;5.47;;;2.95;;
54177;SDS011;40085;53.004;6.770;2022-12-18T16:06:40;4.97;;;3.27;;
54177;SDS011;40085;53.004;6.770;2022-12-18T16:09:06;8.65;;;4.10;;
54177;SDS011;40085;53.004;6.770;2022-12-18T16:11:33;8.65;;;4.40;;
54177;SDS011;40085;53.004;6.770;2022-12-18T16:16:30;5.75;;;4.10;;
54177;SDS011;40085;53.004;6.770;2022-12-18T16:18:56;7.07;;;3.97;;
54177;SDS011;40085;53.004;6.770;2022-12-18T16:21:21;5.72;;;3.78;;
54177;SDS011;40085;53.004;6.770;2022-12-18T16:23:47;10.13;;;4.32;;
54177;SDS011;40085;53.004;6.770;2022-12-18T16:26:13;5.65;;;3.47;;
54177;SDS011;40085;53.004;6.770;2022-12-18T16:28:38;4.88;;;3.33;;
54177;SDS011;40085;53.004;6.770;2022-12-18T16:31:04;7.38;;;3.53;;
54177;SDS011;40085;53.004;6.770;2022-12-18T16:33:29;6.63;;;4.05;;
54177;SDS011;40085;53.004;6.770;2022-12-18T16:35:55;5.57;;;3.13;;
54177;SDS011;40085;53.004;6.770;2022-12-18T16:38:21;6.80;;;3.55;;
54177;SDS011;40085;53.004;6.770;2022-12-18T16:40:46;9.55;;;3.88;;
54177;SDS011;40085;53.004;6.770;2022-12-18T16:43:30;8.65;;;4.32;;
54177;SDS011;40085;53.004;6.770;2022-12-18T16:45:58;5.70;;;3.50;;
54177;SDS011;40085;53.004;6.770;2022-12-18T16:48:23;7.20;;;3.00;;
54177;SDS011;40085;53.004;6.770;2022-12-18T16:50:49;6.13;;;3.38;;
54177;SDS011;40085;53.004;6.770;2022-12-18T16:53:15;6.50;;;4.15;;
54177;SDS011;40085;53.004;6.770;2022-12-18T16:55:40;6.60;;;3.85;;
54177;SDS011;40085;53.004;6.770;2022-12-18T16:58:06;7.88;;;3.80;;